createdAt,value
2019-05-09T00:00:00.000Z,49.27
2019-05-09T00:02:33.703Z,49.17
2019-05-09T00:05:05.383Z,49.22
2019-05-09T00:07:36.076Z,49.25
2019-05-09T00:10:08.350Z,49.28
2019-05-09T00:12:39.063Z,49.48
2019-05-09T00:15:09.950Z,49.40
2019-05-09T00:17:40.663Z,49.46
2019-05-09T00:20:19.249Z,49.59
2019-05-09T00:22:49.969Z,49.43
2019-05-09T00:25:20.631Z,49.73
2019-05-09T00:27:51.196Z,49.65
2019-05-09T00:30:23.385Z,49.92
2019-05-09T00:32:54.020Z,49.91
2019-05-09T00:35:26.417Z,49.95
2019-05-09T00:38:01.341Z,50.03
2019-05-09T00:40:34.026Z,49.80
2019-05-09T00:43:04.242Z,50.04
2019-05-09T00:45:36.910Z,50.14
2019-05-09T00:48:07.956Z,50.24
2019-05-09T00:50:38.843Z,50.20
2019-05-09T00:53:09.579Z,50.11
2019-05-09T00:55:40.137Z,50.12
2019-05-09T00:58:10.786Z,50.25
2019-05-09T01:00:43.779Z,50.20
2019-05-09T01:03:14.310Z,50.37
2019-05-09T01:05:47.452Z,50.36
2019-05-09T01:08:18.993Z,50.51
2019-05-09T01:10:52.908Z,50.38
2019-05-09T01:13:23.216Z,50.42
2019-05-09T01:15:55.308Z,50.25
2019-05-09T01:18:25.928Z,50.18
2019-05-09T01:20:57.997Z,50.34
2019-05-09T01:23:28.758Z,50.08
2019-05-09T01:25:59.395Z,50.52
2019-05-09T01:28:29.968Z,50.47
2019-05-09T01:31:00.530Z,50.47
2019-05-09T01:33:39.156Z,50.68
2019-05-09T01:36:09.692Z,50.66
2019-05-09T01:38:40.640Z,50.75
2019-05-09T01:41:26.258Z,50.87
2019-05-09T01:43:44.260Z,50.79
2019-05-09T01:46:15.341Z,50.73
2019-05-09T01:48:47.351Z,51.00
2019-05-09T01:51:18.081Z,50.88
2019-05-09T01:53:50.674Z,50.97
2019-05-09T01:56:23.626Z,50.87
2019-05-09T01:58:54.481Z,50.95
2019-05-09T02:01:25.167Z,50.97
2019-05-09T02:03:55.919Z,50.97
2019-05-09T02:06:26.923Z,51.00
2019-05-09T02:08:57.782Z,51.03
2019-05-09T02:11:40.139Z,50.99
2019-05-09T02:14:01.213Z,51.21
2019-05-09T02:16:39.465Z,51.26
2019-05-09T02:19:13.643Z,51.15
2019-05-09T02:21:44.211Z,51.45
2019-05-09T02:24:15.138Z,51.54
2019-05-09T02:26:45.847Z,51.55
2019-05-09T02:29:16.413Z,51.82
2019-05-09T02:31:46.973Z,51.96
2019-05-09T02:34:17.517Z,52.04
2019-05-09T02:36:49.554Z,52.01
2019-05-09T02:39:20.612Z,52.18
2019-05-09T02:42:07.694Z,52.33
2019-05-09T02:44:23.719Z,52.25
2019-05-09T02:46:59.164Z,52.42
2019-05-09T02:49:29.971Z,52.40
2019-05-09T02:52:00.731Z,52.26
2019-05-09T02:54:31.281Z,52.32
2019-05-09T02:57:01.841Z,52.50
2019-05-09T02:59:38.655Z,52.29
2019-05-09T03:02:22.715Z,52.62
2019-05-09T03:04:53.553Z,52.65
2019-05-09T03:07:28.763Z,52.78
2019-05-09T03:09:58.527Z,52.64
2019-05-09T03:12:35.232Z,52.45
2019-05-09T03:15:01.565Z,52.65
2019-05-09T03:17:32.118Z,52.76
2019-05-09T03:20:03.937Z,52.65
2019-05-09T03:22:34.590Z,52.53
2019-05-09T03:25:08.957Z,52.30
2019-05-09T03:27:41.467Z,52.41
2019-05-09T03:30:20.681Z,52.62
2019-05-09T03:32:49.289Z,52.57
2019-05-09T03:35:20.026Z,52.84
2019-05-09T03:38:07.834Z,52.92
2019-05-09T03:40:40.340Z,52.86
2019-05-09T03:43:10.541Z,53.18
2019-05-09T03:45:48.422Z,53.03
2019-05-09T03:48:28.369Z,52.92
2019-05-09T03:50:59.872Z,53.25
2019-05-09T03:53:30.589Z,53.41
2019-05-09T03:56:02.951Z,53.42
2019-05-09T03:58:33.729Z,53.61
2019-05-09T04:01:04.774Z,53.67
2019-05-09T04:03:37.698Z,53.81
2019-05-09T04:06:08.391Z,53.76
2019-05-09T04:08:39.278Z,53.94
2019-05-09T04:11:10.386Z,53.95
2019-05-09T04:13:54.737Z,54.11
2019-05-09T04:16:27.539Z,54.23
2019-05-09T04:18:58.262Z,54.59
2019-05-09T04:21:29.088Z,54.26
2019-05-09T04:23:59.738Z,54.47
2019-05-09T04:26:35.334Z,54.62
2019-05-09T04:29:07.956Z,54.87
2019-05-09T04:31:38.488Z,54.90
2019-05-09T04:34:09.831Z,54.99
2019-05-09T04:36:40.586Z,54.97
2019-05-09T04:39:20.927Z,55.09
2019-05-09T04:41:45.681Z,55.06
2019-05-09T04:44:21.351Z,55.12
2019-05-09T04:46:54.030Z,55.12
2019-05-09T04:49:22.730Z,54.90
2019-05-09T04:51:53.288Z,55.07
2019-05-09T04:54:23.976Z,55.12
2019-05-09T04:56:57.471Z,55.26
2019-05-09T04:59:28.472Z,55.40
2019-05-09T05:02:03.757Z,54.93
2019-05-09T05:04:34.387Z,55.02
2019-05-09T05:07:07.479Z,55.07
2019-05-09T05:09:38.087Z,55.23
2019-05-09T05:12:09.353Z,54.91
2019-05-09T05:14:40.035Z,55.15
2019-05-09T05:17:11.460Z,54.82
2019-05-09T05:19:42.412Z,54.46
2019-05-09T05:22:18.243Z,54.25
2019-05-09T05:24:59.503Z,54.12
2019-05-09T05:27:29.862Z,53.89
2019-05-09T05:30:00.768Z,53.62
2019-05-09T05:32:49.110Z,53.79
2019-05-09T05:35:30.484Z,53.94
2019-05-09T05:38:01.091Z,53.81
2019-05-09T05:40:33.503Z,54.17
2019-05-09T05:43:04.171Z,53.63
2019-05-09T05:45:37.543Z,53.75
2019-05-09T05:48:12.734Z,53.95
2019-05-09T05:50:44.692Z,53.87
2019-05-09T05:53:15.356Z,53.60
2019-05-09T05:55:48.587Z,53.72
2019-05-09T05:58:18.271Z,53.43
2019-05-09T06:00:48.966Z,53.63
2019-05-09T06:03:19.795Z,53.88
2019-05-09T06:05:51.728Z,54.05
2019-05-09T06:08:22.532Z,53.99
2019-05-09T06:10:54.327Z,54.18
2019-05-09T06:13:27.428Z,53.86
2019-05-09T06:15:58.623Z,54.64
2019-05-09T06:18:29.594Z,54.91
2019-05-09T06:21:00.948Z,55.06
2019-05-09T06:23:31.553Z,55.24
2019-05-09T06:26:02.235Z,55.22
2019-05-09T06:28:32.988Z,55.55
2019-05-09T06:31:04.221Z,55.85
2019-05-09T06:33:35.134Z,55.80
2019-05-09T06:36:08.052Z,56.29
2019-05-09T06:38:38.509Z,56.27
2019-05-09T06:41:12.071Z,55.89
2019-05-09T06:43:43.223Z,56.51
2019-05-09T06:46:18.114Z,56.94
2019-05-09T06:48:49.313Z,57.04
2019-05-09T06:51:21.330Z,57.73
2019-05-09T06:53:52.164Z,58.35
2019-05-09T06:56:23.353Z,58.87
2019-05-09T06:58:54.997Z,59.61
2019-05-09T07:01:28.545Z,60.13
2019-05-09T07:04:04.766Z,60.65
2019-05-09T07:06:55.546Z,61.29
2019-05-09T07:09:33.841Z,62.47
2019-05-09T07:12:04.624Z,62.72
2019-05-09T07:14:41.351Z,63.71
2019-05-09T07:17:08.850Z,66.00
2019-05-09T07:19:43.458Z,66.60
2019-05-09T07:22:18.496Z,68.04
2019-05-09T07:25:05.008Z,70.38
2019-05-09T07:27:30.834Z,70.51
2019-05-09T07:30:19.883Z,71.71
2019-05-09T07:32:54.963Z,73.43
2019-05-09T07:35:27.838Z,74.41
2019-05-09T07:37:58.692Z,76.22
2019-05-09T07:40:30.618Z,77.97
2019-05-09T07:43:01.858Z,79.30
2019-05-09T07:45:32.414Z,81.14
2019-05-09T07:48:03.107Z,81.89
2019-05-09T07:50:33.692Z,83.28
2019-05-09T07:53:04.465Z,84.95
2019-05-09T07:55:34.988Z,85.99
2019-05-09T07:58:08.106Z,86.16
2019-05-09T08:00:38.751Z,87.56
2019-05-09T08:03:13.094Z,88.32
2019-05-09T08:05:41.979Z,89.03
2019-05-09T08:08:18.534Z,89.15
2019-05-09T08:10:49.501Z,88.61
2019-05-09T08:13:21.408Z,89.08
2019-05-09T08:15:52.563Z,88.98
2019-05-09T08:18:24.926Z,88.09
2019-05-09T08:20:57.763Z,88.62
2019-05-09T08:23:29.200Z,88.64
2019-05-09T08:26:04.628Z,88.98
2019-05-09T08:28:34.842Z,89.18
2019-05-09T08:31:08.315Z,89.64
2019-05-09T08:33:40.547Z,89.46
2019-05-09T08:36:11.504Z,89.32
2019-05-09T08:38:42.520Z,89.57
2019-05-09T08:41:14.335Z,89.88
2019-05-09T08:43:48.399Z,90.25
2019-05-09T08:46:19.202Z,90.64
2019-05-09T08:48:50.982Z,90.83
2019-05-09T08:51:23.236Z,91.14
2019-05-09T08:53:53.812Z,91.38
2019-05-09T08:56:24.355Z,91.13
2019-05-09T08:58:59.349Z,91.29
2019-05-09T09:01:45.908Z,91.17
2019-05-09T09:04:00.399Z,91.29
2019-05-09T09:06:31.118Z,91.85
2019-05-09T09:09:01.943Z,91.86
2019-05-09T09:11:34.110Z,91.92
2019-05-09T09:14:04.829Z,91.91
2019-05-09T09:16:37.769Z,92.20
2019-05-09T09:19:08.913Z,91.73
2019-05-09T09:21:39.586Z,90.87
2019-05-09T09:24:10.470Z,91.18
2019-05-09T09:26:41.291Z,91.04
2019-05-09T09:29:12.035Z,91.09
2019-05-09T09:31:43.431Z,91.38
2019-05-09T09:34:14.273Z,91.59
2019-05-09T09:36:44.898Z,91.80
2019-05-09T09:39:15.508Z,91.88
2019-05-09T09:41:48.168Z,92.09
2019-05-09T09:44:22.005Z,92.53
2019-05-09T09:46:52.143Z,92.24
2019-05-09T09:49:22.686Z,92.69
2019-05-09T09:51:53.499Z,92.51
2019-05-09T09:54:24.349Z,92.91
2019-05-09T09:56:54.904Z,92.69
2019-05-09T09:59:32.975Z,92.74
2019-05-09T10:02:10.009Z,92.53
2019-05-09T10:04:37.689Z,92.81
2019-05-09T10:07:09.007Z,93.10
2019-05-09T10:09:40.719Z,93.54
2019-05-09T10:12:11.474Z,93.47
2019-05-09T10:14:44.847Z,92.92
2019-05-09T10:17:33.407Z,93.14
2019-05-09T10:20:07.602Z,92.42
2019-05-09T10:22:46.319Z,91.90
2019-05-09T10:25:10.643Z,91.78
2019-05-09T10:27:41.340Z,91.99
2019-05-09T10:30:11.917Z,92.00
2019-05-09T10:32:42.804Z,92.11
2019-05-09T10:35:17.724Z,91.54
2019-05-09T10:37:48.635Z,91.43
2019-05-09T10:40:23.064Z,92.12
2019-05-09T10:43:10.598Z,92.32
2019-05-09T10:45:43.033Z,92.30
2019-05-09T10:48:14.062Z,91.79
2019-05-09T10:50:46.077Z,91.51
2019-05-09T10:53:17.982Z,91.55
2019-05-09T10:55:48.945Z,91.66
2019-05-09T10:58:23.420Z,91.55
2019-05-09T11:00:52.217Z,91.83
2019-05-09T11:03:22.793Z,91.56
2019-05-09T11:05:54.188Z,91.82
2019-05-09T11:08:25.866Z,91.93
2019-05-09T11:10:58.038Z,92.13
2019-05-09T11:13:29.003Z,91.52
2019-05-09T11:15:59.889Z,90.77
2019-05-09T11:18:30.674Z,90.82
2019-05-09T11:21:01.288Z,91.06
2019-05-09T11:23:32.141Z,90.10
2019-05-09T11:26:02.743Z,90.39
2019-05-09T11:28:33.473Z,91.33
2019-05-09T11:31:08.188Z,90.73
2019-05-09T11:33:39.777Z,91.42
2019-05-09T11:36:10.932Z,90.53
2019-05-09T11:38:43.970Z,90.84
2019-05-09T11:41:18.966Z,90.59
2019-05-09T11:43:48.682Z,89.80
2019-05-09T11:46:22.341Z,90.26
2019-05-09T11:48:53.396Z,91.08
2019-05-09T11:51:24.719Z,91.28
2019-05-09T11:53:58.076Z,91.89
2019-05-09T11:56:28.306Z,91.49
2019-05-09T11:58:58.842Z,91.66
2019-05-09T12:01:31.167Z,92.27
2019-05-09T12:04:01.979Z,91.57
2019-05-09T12:06:34.001Z,91.78
2019-05-09T12:09:08.564Z,90.94
2019-05-09T12:11:44.414Z,90.44
2019-05-09T12:14:12.618Z,90.62
2019-05-09T12:16:43.300Z,91.59
2019-05-09T12:19:14.133Z,91.81
2019-05-09T12:21:48.143Z,91.46
2019-05-09T12:24:19.401Z,92.52
2019-05-09T12:58:09.767Z,89.23
2019-05-09T13:00:41.139Z,89.14
2019-05-09T13:03:12.017Z,89.23
2019-05-09T13:05:42.813Z,89.43
2019-05-09T13:08:13.344Z,88.65
2019-05-09T13:10:43.926Z,89.05
2019-05-09T13:13:18.436Z,87.99
2019-05-09T13:15:58.113Z,89.26
2019-05-09T13:18:30.139Z,88.46
2019-05-09T13:21:00.769Z,88.29
2019-05-09T13:23:33.409Z,88.46
2019-05-09T13:26:04.002Z,87.37
2019-05-09T13:28:34.930Z,88.03
2019-05-09T13:31:08.261Z,87.10
2019-05-09T13:33:41.385Z,87.67
2019-05-09T13:36:11.865Z,88.47
2019-05-09T13:38:57.862Z,88.73
2019-05-09T13:41:17.647Z,87.67
2019-05-09T13:43:57.751Z,88.64
2019-05-09T13:46:20.260Z,85.94
2019-05-09T13:49:05.854Z,87.34
2019-05-09T13:51:23.279Z,87.89
2019-05-09T13:53:59.083Z,86.21
2019-05-09T13:56:29.213Z,86.05
2019-05-09T13:59:00.278Z,85.95
2019-05-09T14:01:31.256Z,85.36
2019-05-09T14:04:02.160Z,86.40
2019-05-09T14:06:33.632Z,82.97
2019-05-09T14:09:10.287Z,82.97
2019-05-09T14:11:39.041Z,80.58
2019-05-09T14:14:09.954Z,80.52
2019-05-09T14:16:40.804Z,80.52
2019-05-09T14:19:30.231Z,82.78
2019-05-09T14:21:47.974Z,81.83
2019-05-09T14:24:19.161Z,81.15
2019-05-09T14:26:50.499Z,82.01
2019-05-09T14:29:21.069Z,82.22
2019-05-09T14:31:51.982Z,85.02
2019-05-09T14:34:22.834Z,85.02
2019-05-09T14:36:53.689Z,84.55
2019-05-09T14:39:27.571Z,84.66
2019-05-09T14:41:57.999Z,83.46
2019-05-09T14:44:28.692Z,82.24
2019-05-09T14:47:00.945Z,84.80
2019-05-09T14:49:40.389Z,83.12
2019-05-09T14:52:04.002Z,83.21
2019-05-09T14:54:35.354Z,80.99
2019-05-09T14:57:09.408Z,81.16
2019-05-09T14:59:39.025Z,80.23
2019-05-09T15:02:10.034Z,81.26
2019-05-09T15:04:42.031Z,80.62
2019-05-09T15:07:12.792Z,80.62
2019-05-09T15:09:43.589Z,82.55
2019-05-09T15:12:14.428Z,82.55
2019-05-09T15:14:45.128Z,81.80
2019-05-09T15:17:18.288Z,84.06
2019-05-09T15:19:59.573Z,80.95
2019-05-09T15:22:21.923Z,81.43
2019-05-09T15:24:55.737Z,82.73
2019-05-09T15:27:29.874Z,81.97
2019-05-09T15:30:00.982Z,83.44
2019-05-09T15:32:32.547Z,82.01
2019-05-09T15:35:03.358Z,83.08
2019-05-09T15:37:38.573Z,83.67
2019-05-09T15:40:09.491Z,82.75
2019-05-09T15:42:40.831Z,83.18
2019-05-09T15:45:12.376Z,84.07
2019-05-09T15:47:44.072Z,83.51
2019-05-09T15:50:22.175Z,83.05
2019-05-09T15:52:48.674Z,83.13
2019-05-09T15:55:21.038Z,83.29
2019-05-09T15:57:52.135Z,83.79
2019-05-09T16:00:23.943Z,82.55
2019-05-09T16:02:54.771Z,84.47
2019-05-09T16:05:25.542Z,83.99
2019-05-09T16:07:58.482Z,82.88
2019-05-09T16:10:29.058Z,83.31
2019-05-09T16:13:00.080Z,82.64
2019-05-09T16:15:30.865Z,82.19
2019-05-09T16:18:02.452Z,82.74
2019-05-09T16:20:37.370Z,84.73
2019-05-09T16:23:08.392Z,85.21
2019-05-09T16:25:40.863Z,85.71
2019-05-09T16:28:14.076Z,86.59
2019-05-09T16:30:45.464Z,85.06
2019-05-09T16:33:18.371Z,85.70
2019-05-09T16:35:52.583Z,85.79
2019-05-09T16:38:22.228Z,86.41
2019-05-09T16:40:53.248Z,86.82
2019-05-09T16:43:24.006Z,85.84
2019-05-09T16:45:58.154Z,86.55
2019-05-09T16:48:30.705Z,86.14
2019-05-09T16:51:04.289Z,86.70
2019-05-09T16:53:34.176Z,87.09
2019-05-09T16:56:05.006Z,86.85
2019-05-09T16:58:38.626Z,87.50
2019-05-09T17:01:10.809Z,87.25
2019-05-09T17:03:41.750Z,87.44
2019-05-09T17:06:12.653Z,87.23
2019-05-09T17:08:43.384Z,87.83
2019-05-09T17:11:14.035Z,87.31
2019-05-09T17:13:44.762Z,87.89
2019-05-09T17:16:17.754Z,88.10
2019-05-09T17:18:49.267Z,87.55
2019-05-09T17:21:28.157Z,88.08
2019-05-09T17:24:01.260Z,88.07
2019-05-09T17:26:32.857Z,87.92
2019-05-09T17:29:05.961Z,88.32
2019-05-09T17:31:38.335Z,88.33
2019-05-09T17:34:10.511Z,88.68
2019-05-09T17:36:41.718Z,88.66
2019-05-09T17:39:13.330Z,88.63
2019-05-09T17:41:44.301Z,88.49
2019-05-09T17:44:15.172Z,88.71
2019-05-09T17:46:48.097Z,88.95
2019-05-09T17:49:19.980Z,89.20
2019-05-09T17:51:50.811Z,89.49
2019-05-09T17:54:21.498Z,88.96
2019-05-09T17:56:52.741Z,89.07
2019-05-09T17:59:23.860Z,88.89
2019-05-09T18:01:54.634Z,89.35
2019-05-09T18:04:28.772Z,89.47
2019-05-09T18:07:02.502Z,89.59
2019-05-09T18:09:33.564Z,89.38
2019-05-09T18:12:04.682Z,89.12
2019-05-09T18:14:38.319Z,89.49
2019-05-09T18:17:09.446Z,89.39
2019-05-09T18:19:41.965Z,89.34
2019-05-09T18:22:12.927Z,89.43
2019-05-09T18:24:45.044Z,90.00
2019-05-09T18:27:17.967Z,90.59
2019-05-09T18:29:49.702Z,90.99
2019-05-09T18:32:31.944Z,91.23
2019-05-09T18:35:20.219Z,91.09
2019-05-09T18:37:51.657Z,91.55
2019-05-09T18:40:24.088Z,91.79
2019-05-09T18:42:54.988Z,91.88
2019-05-09T18:45:29.258Z,91.72
2019-05-09T18:47:59.949Z,91.85
2019-05-09T18:50:31.928Z,92.01
2019-05-09T18:53:03.049Z,92.33
2019-05-09T18:55:34.006Z,92.55
2019-05-09T18:58:05.398Z,92.78
2019-05-09T19:00:37.630Z,93.00
2019-05-09T19:03:09.866Z,93.32
2019-05-09T19:05:41.191Z,93.38
2019-05-09T19:08:12.054Z,93.53
2019-05-09T19:10:43.974Z,93.51
2019-05-09T19:13:15.128Z,93.60
2019-05-09T19:15:53.640Z,93.40
2019-05-09T19:18:26.055Z,93.52
2019-05-09T19:20:59.659Z,93.55
2019-05-09T19:23:30.639Z,94.44
2019-05-09T19:26:02.998Z,94.15
2019-05-09T19:28:34.101Z,93.43
2019-05-09T19:31:05.586Z,93.81
2019-05-09T19:33:36.455Z,94.58
2019-05-09T19:36:07.645Z,94.45
2019-05-09T19:38:39.053Z,95.35
2019-05-09T19:41:10.264Z,95.96
2019-05-09T19:43:42.006Z,95.97
2019-05-09T19:46:12.936Z,95.71
2019-05-09T19:48:43.724Z,96.22
2019-05-09T19:51:14.729Z,96.01
2019-05-09T19:53:45.727Z,96.22
2019-05-09T19:56:17.096Z,96.83
2019-05-09T19:58:47.901Z,97.13
2019-05-09T20:01:18.967Z,97.19
2019-05-09T20:03:50.954Z,97.17
2019-05-09T20:06:21.810Z,96.98
2019-05-09T20:08:53.417Z,96.97
2019-05-09T20:11:40.824Z,97.60
2019-05-09T20:14:13.433Z,97.56
2019-05-09T20:16:45.754Z,97.33
2019-05-09T20:19:16.916Z,97.65
2019-05-09T20:21:49.229Z,97.85
2019-05-09T20:24:21.660Z,98.37
2019-05-09T20:26:52.520Z,98.72
2019-05-09T20:29:23.322Z,98.57
2019-05-09T20:31:54.017Z,98.42
2019-05-09T20:34:25.131Z,98.18
2019-05-09T20:36:56.789Z,97.72
2019-05-09T20:39:30.747Z,96.45
2019-05-09T20:42:00.987Z,95.55
2019-05-09T20:44:32.071Z,96.51
2019-05-09T20:47:03.768Z,97.15
2019-05-09T20:49:34.787Z,97.61
2019-05-09T20:52:05.614Z,97.99
2019-05-09T20:54:37.789Z,98.34
2019-05-09T20:57:08.851Z,98.49
2019-05-09T20:59:41.690Z,98.29
2019-05-09T21:02:13.218Z,97.43
2019-05-09T21:04:45.052Z,96.50
2019-05-09T21:07:16.327Z,96.02
2019-05-09T21:09:47.738Z,96.31
2019-05-09T21:12:18.738Z,97.44
2019-05-09T21:14:49.697Z,98.04
2019-05-09T21:17:20.938Z,97.67
2019-05-09T21:19:52.241Z,96.68
2019-05-09T21:22:23.293Z,97.13
2019-05-09T21:24:54.228Z,97.84
2019-05-09T21:27:24.956Z,98.38
2019-05-09T21:29:56.132Z,99.19
2019-05-09T21:32:27.031Z,99.49
2019-05-09T21:34:57.873Z,99.60
2019-05-09T21:37:28.428Z,99.67
2019-05-09T21:39:59.084Z,99.64
2019-05-09T21:42:31.302Z,99.68
2019-05-09T21:45:01.995Z,99.75
2019-05-09T21:47:33.593Z,99.69
2019-05-09T21:50:06.357Z,99.68
2019-05-09T21:52:37.022Z,99.61
2019-05-09T21:55:08.230Z,99.63
2019-05-09T21:57:39.826Z,99.75
2019-05-09T22:00:15.939Z,99.99
2019-05-09T22:02:48.386Z,100.00
2019-05-09T22:05:20.175Z,100.00
2019-05-09T22:07:50.824Z,100.00
2019-05-09T22:10:22.543Z,100.00
2019-05-09T22:12:53.350Z,100.00
2019-05-09T22:15:24.144Z,100.00
2019-05-09T22:17:55.364Z,100.00
2019-05-09T22:20:26.269Z,100.00
2019-05-09T22:22:57.447Z,100.00
2019-05-09T22:25:28.214Z,100.00
2019-05-09T22:27:59.063Z,100.00
2019-05-09T22:30:30.130Z,100.00
2019-05-09T22:33:01.107Z,100.00
2019-05-09T22:35:31.758Z,100.00
2019-05-09T22:38:02.844Z,100.00
2019-05-09T22:40:33.566Z,100.00
2019-05-09T22:43:04.942Z,100.00
2019-05-09T22:45:35.990Z,100.00
2019-05-09T22:48:07.222Z,100.00
2019-05-09T22:50:38.014Z,100.00
2019-05-09T22:53:09.320Z,100.00
2019-05-09T22:55:40.546Z,100.00
2019-05-09T22:58:11.117Z,100.00
2019-05-09T23:00:41.957Z,100.00
2019-05-09T23:03:13.919Z,100.00
2019-05-09T23:05:46.127Z,100.00
2019-05-09T23:08:17.214Z,100.00
2019-05-09T23:10:48.048Z,100.00
2019-05-09T23:13:18.959Z,100.00
2019-05-09T23:15:49.942Z,100.00
2019-05-09T23:18:20.783Z,100.00
2019-05-09T23:20:53.309Z,100.00
2019-05-09T23:23:29.136Z,100.00
2019-05-09T23:26:00.518Z,100.00
2019-05-09T23:28:31.426Z,100.00
2019-05-09T23:31:04.377Z,100.00
2019-05-09T23:33:36.869Z,100.00
2019-05-09T23:36:07.656Z,100.00
2019-05-09T23:38:56.289Z,100.00
2019-05-09T23:41:27.160Z,100.00
2019-05-09T23:43:57.996Z,100.00
2019-05-09T23:46:28.691Z,100.00
2019-05-09T23:48:59.403Z,100.00
2019-05-09T23:51:49.195Z,100.00
2019-05-09T23:54:46.729Z,100.00
2019-05-09T23:57:31.263Z,100.00
